createdAt,value
2023-05-05T00:04:17.057Z,76.40
2023-05-05T00:09:21.442Z,77.10
2023-05-05T00:14:23.764Z,76.70
2023-05-05T00:19:25.997Z,78.10
2023-05-05T00:24:29.805Z,78.50
2023-05-05T00:29:32.117Z,78.50
2023-05-05T00:34:34.336Z,78.20
2023-05-05T00:39:38.050Z,78.50
2023-05-05T00:44:41.643Z,78.30
2023-05-05T00:49:44.072Z,80.00
2023-05-05T00:54:48.055Z,80.00
2023-05-05T00:59:51.311Z,80.20
2023-05-05T01:04:54.049Z,80.40
2023-05-05T01:10:17.959Z,81.00
2023-05-05T01:15:31.721Z,80.90
2023-05-05T01:20:41.240Z,80.80
2023-05-05T01:26:08.874Z,80.80
2023-05-05T01:31:25.397Z,81.80
2023-05-05T01:36:44.640Z,81.80
2023-05-05T01:41:50.033Z,81.70
2023-05-05T01:46:53.700Z,81.20
2023-05-05T01:51:58.601Z,81.30
2023-05-05T01:57:04.757Z,81.00
2023-05-05T02:02:10.587Z,81.20
2023-05-05T02:07:15.616Z,81.10
2023-05-05T02:12:19.347Z,81.20
2023-05-05T02:17:23.112Z,81.00
2023-05-05T02:22:26.909Z,80.60
2023-05-05T02:27:33.715Z,80.40
2023-05-05T02:32:40.079Z,80.50
2023-05-05T02:37:48.410Z,81.00
2023-05-05T02:42:52.123Z,81.50
2023-05-05T02:47:54.532Z,81.20
2023-05-05T02:52:58.505Z,81.40
2023-05-05T02:58:06.002Z,81.60
2023-05-05T03:03:12.816Z,81.10
2023-05-05T03:08:20.709Z,81.30
2023-05-05T03:13:24.818Z,81.10
2023-05-05T03:18:29.609Z,81.30
2023-05-05T03:23:35.005Z,80.80
2023-05-05T03:28:37.303Z,81.00
2023-05-05T03:33:39.608Z,81.10
2023-05-05T03:38:43.405Z,80.80
2023-05-05T03:43:45.629Z,81.10
2023-05-05T03:48:47.953Z,81.30
2023-05-05T03:53:51.622Z,81.10
2023-05-05T03:58:53.856Z,81.00
2023-05-05T04:03:56.416Z,80.60
2023-05-05T04:09:00.136Z,80.40
2023-05-05T04:14:02.329Z,79.90
2023-05-05T04:19:04.652Z,80.00
2023-05-05T04:24:08.562Z,80.30
2023-05-05T04:29:10.784Z,80.30
2023-05-05T04:34:13.002Z,80.00
2023-05-05T04:39:16.670Z,80.40
2023-05-05T04:44:18.876Z,80.20
2023-05-05T04:49:21.170Z,79.90
2023-05-05T04:54:24.799Z,79.80
2023-05-05T04:59:27.033Z,79.50
2023-05-05T05:04:29.294Z,79.40
2023-05-05T05:09:32.962Z,79.30
2023-05-05T05:14:37.158Z,79.30
2023-05-05T05:19:39.572Z,78.90
2023-05-05T05:24:43.585Z,77.40
2023-05-05T05:29:45.838Z,75.10
2023-05-05T05:34:48.172Z,73.90
2023-05-05T05:39:54.722Z,73.10
2023-05-05T05:44:57.123Z,73.80
2023-05-05T05:49:59.439Z,74.40
2023-05-05T05:55:03.393Z,74.60
2023-05-05T06:00:07.872Z,75.30
2023-05-05T06:05:10.658Z,74.90
2023-05-05T06:10:26.414Z,74.90
2023-05-05T06:15:30.866Z,74.70
2023-05-05T06:20:33.228Z,74.90
2023-05-05T06:25:36.978Z,76.00
2023-05-05T06:30:39.266Z,78.10
2023-05-05T06:35:41.516Z,78.60
2023-05-05T06:40:47.384Z,77.50
2023-05-05T06:45:49.645Z,80.20
2023-05-05T06:50:52.204Z,81.50
2023-05-05T06:55:55.963Z,82.90
2023-05-05T07:00:58.339Z,82.80
2023-05-05T07:06:01.924Z,82.00
2023-05-05T07:11:05.845Z,82.80
2023-05-05T07:16:08.346Z,82.60
2023-05-05T07:21:10.679Z,84.20
2023-05-05T07:26:14.515Z,86.30
2023-05-05T07:31:16.753Z,88.90
2023-05-05T07:36:19.199Z,89.70
2023-05-05T07:41:22.959Z,89.30
2023-05-05T07:46:25.280Z,89.30
2023-05-05T07:51:27.654Z,89.70
2023-05-05T07:56:31.636Z,89.00
2023-05-05T08:01:33.995Z,88.90
2023-05-05T08:06:36.359Z,89.10
2023-05-05T08:11:40.223Z,89.50
2023-05-05T08:16:42.590Z,88.40
2023-05-05T08:21:44.814Z,87.90
2023-05-05T08:26:48.493Z,87.50
2023-05-05T08:31:50.901Z,86.50
2023-05-05T08:36:53.205Z,86.50
2023-05-05T08:41:57.739Z,87.60
2023-05-05T08:47:01.894Z,87.10
2023-05-05T08:52:09.175Z,85.50
2023-05-05T08:57:17.400Z,85.30
2023-05-05T09:02:21.413Z,83.80
2023-05-05T09:07:24.560Z,83.10
2023-05-05T09:12:31.619Z,79.60
2023-05-05T09:17:33.700Z,74.60
2023-05-05T09:22:37.709Z,74.90
2023-05-05T09:27:43.932Z,75.70
2023-05-05T09:32:47.899Z,74.30
2023-05-05T09:37:50.261Z,73.70
2023-05-05T09:43:02.048Z,73.10
2023-05-05T09:48:06.374Z,69.10
2023-05-05T09:53:09.657Z,67.20
2023-05-05T09:58:19.908Z,69.70
2023-05-05T10:03:23.481Z,69.50
2023-05-05T10:08:27.680Z,71.80
2023-05-05T10:13:35.627Z,67.60
2023-05-05T10:18:42.852Z,67.30
2023-05-05T10:23:57.396Z,67.80
2023-05-05T10:29:07.253Z,67.50
2023-05-05T10:34:11.543Z,67.70
2023-05-05T10:39:17.073Z,67.70
2023-05-05T10:44:21.898Z,66.50
2023-05-05T10:49:33.373Z,65.20
2023-05-05T10:54:44.150Z,65.50
2023-05-05T10:59:47.923Z,66.10
2023-05-05T11:05:11.218Z,68.10
2023-05-05T11:10:15.190Z,66.20
2023-05-05T11:15:35.170Z,65.60
2023-05-05T11:21:14.160Z,66.10
2023-05-05T11:26:17.851Z,63.90
2023-05-05T11:31:22.213Z,64.10
2023-05-05T11:36:40.706Z,64.30
2023-05-05T11:42:14.098Z,62.00
2023-05-05T11:47:29.394Z,60.00
2023-05-05T11:52:31.866Z,60.70
2023-05-05T11:57:34.087Z,60.40
2023-05-05T12:02:37.867Z,62.40
2023-05-05T12:07:40.250Z,60.80
2023-05-05T12:12:42.709Z,61.80
2023-05-05T12:17:46.616Z,62.10
2023-05-05T12:22:48.915Z,62.60
2023-05-05T12:27:53.126Z,61.30
2023-05-05T12:33:03.346Z,60.70
2023-05-05T12:38:05.685Z,60.40
2023-05-05T12:43:08.229Z,63.10
2023-05-05T12:48:24.234Z,61.20
2023-05-05T12:53:26.865Z,61.70
2023-05-05T12:58:29.229Z,62.10
2023-05-05T13:03:33.685Z,62.40
2023-05-05T13:08:45.563Z,62.10
2023-05-05T13:13:47.826Z,63.50
2023-05-05T13:18:51.824Z,64.60
2023-05-05T13:23:57.318Z,64.80
2023-05-05T13:29:03.710Z,63.10
2023-05-05T13:34:07.634Z,63.80
2023-05-05T13:39:09.944Z,64.70
2023-05-05T13:44:12.712Z,64.40
2023-05-05T13:49:16.524Z,64.40
2023-05-05T13:54:19.078Z,65.20
2023-05-05T13:59:21.407Z,64.20
2023-05-05T14:04:25.597Z,65.00
2023-05-05T14:09:28.047Z,64.70
2023-05-05T14:14:30.413Z,63.50
2023-05-05T14:19:34.236Z,64.40
2023-05-05T14:24:36.655Z,63.90
2023-05-05T14:29:38.988Z,64.80
2023-05-05T14:34:42.760Z,65.20
2023-05-05T14:39:45.178Z,64.90
2023-05-05T14:44:47.488Z,65.60
2023-05-05T14:49:51.147Z,65.20
2023-05-05T14:54:53.455Z,66.30
2023-05-05T14:59:55.694Z,65.70
2023-05-05T15:04:59.487Z,66.30
2023-05-05T15:10:01.868Z,65.70
2023-05-05T15:15:04.692Z,66.10
2023-05-05T15:20:09.910Z,66.40
2023-05-05T15:25:12.336Z,66.70
2023-05-05T15:30:15.390Z,67.00
2023-05-05T15:35:19.327Z,67.50
2023-05-05T15:40:22.047Z,68.10
2023-05-05T15:45:24.493Z,68.00
2023-05-05T15:50:28.285Z,69.10
2023-05-05T15:55:30.599Z,69.70
2023-05-05T16:00:32.919Z,69.70
2023-05-05T16:05:36.763Z,70.10
2023-05-05T16:10:39.108Z,70.70
2023-05-05T16:15:41.388Z,71.10
2023-05-05T16:20:45.156Z,71.70
2023-05-05T16:25:47.425Z,72.20
2023-05-05T16:30:53.423Z,72.70
2023-05-05T16:35:57.242Z,73.10
2023-05-05T16:40:59.659Z,73.60
2023-05-05T16:46:02.268Z,73.70
2023-05-05T16:51:06.021Z,73.90
2023-05-05T16:56:12.471Z,74.50
2023-05-05T17:01:14.757Z,75.20
2023-05-05T17:06:18.654Z,75.90
2023-05-05T17:11:20.986Z,75.50
2023-05-05T17:16:23.304Z,75.80
2023-05-05T17:21:27.058Z,76.10
2023-05-05T17:26:30.720Z,76.50
2023-05-05T17:31:33.000Z,76.50
2023-05-05T17:36:36.899Z,76.30
2023-05-05T17:41:39.429Z,76.40
2023-05-05T17:46:41.656Z,76.20
2023-05-05T17:51:45.404Z,76.30
2023-05-05T17:56:47.742Z,76.50
2023-05-05T18:01:49.976Z,77.20
2023-05-05T18:06:54.572Z,76.30
2023-05-05T18:11:57.023Z,76.70
2023-05-05T18:16:59.284Z,76.60
2023-05-05T18:22:03.032Z,76.60
2023-05-05T18:27:06.547Z,77.10
2023-05-05T18:32:08.742Z,77.00
2023-05-05T18:37:12.533Z,77.20
2023-05-05T18:42:14.710Z,77.40
2023-05-05T18:47:16.916Z,77.40
2023-05-05T18:52:20.680Z,77.60
2023-05-05T18:57:22.977Z,77.80
2023-05-05T19:02:25.253Z,77.80
2023-05-05T19:07:35.494Z,78.00
2023-05-05T19:12:38.196Z,78.30
2023-05-05T19:17:40.498Z,78.20
2023-05-05T19:22:44.112Z,78.40
2023-05-05T19:27:46.299Z,78.60
2023-05-05T19:32:48.630Z,78.60
2023-05-05T19:37:52.396Z,78.80
2023-05-05T19:42:54.582Z,78.90
2023-05-05T19:47:56.975Z,78.70
2023-05-05T19:53:00.726Z,78.70
2023-05-05T19:58:03.066Z,78.90
2023-05-05T20:03:06.536Z,78.90
2023-05-05T20:08:10.240Z,78.90
2023-05-05T20:13:12.971Z,79.00
2023-05-05T20:18:15.440Z,79.10
2023-05-05T20:23:19.189Z,79.00
2023-05-05T20:28:21.515Z,79.20
2023-05-05T20:33:23.672Z,79.10
2023-05-05T20:38:27.308Z,79.10
2023-05-05T20:43:29.569Z,79.30
2023-05-05T20:48:31.768Z,79.30
2023-05-05T20:53:35.440Z,79.20
2023-05-05T20:58:37.698Z,79.20
2023-05-05T21:03:39.940Z,79.10
2023-05-05T21:08:43.653Z,79.20
2023-05-05T21:13:45.863Z,79.20
2023-05-05T21:18:48.161Z,79.10
2023-05-05T21:23:51.923Z,79.20
2023-05-05T21:28:54.164Z,79.00
2023-05-05T21:33:56.461Z,79.60
2023-05-05T21:39:00.511Z,79.00
2023-05-05T21:44:02.953Z,79.40
2023-05-05T21:49:12.293Z,79.50
2023-05-05T21:54:16.188Z,79.90
2023-05-05T21:59:18.507Z,79.50
2023-05-05T22:04:21.585Z,79.40
2023-05-05T22:09:25.253Z,79.40
2023-05-05T22:14:27.507Z,79.70
2023-05-05T22:19:29.751Z,79.90
2023-05-05T22:24:33.450Z,80.20
2023-05-05T22:29:35.715Z,80.30
2023-05-05T22:34:38.005Z,80.40
2023-05-05T22:39:41.643Z,80.40
2023-05-05T22:44:43.954Z,80.50
2023-05-05T22:49:46.274Z,80.40
2023-05-05T22:54:51.263Z,80.40
2023-05-05T22:59:53.540Z,80.60
2023-05-05T23:04:55.740Z,80.60
2023-05-05T23:09:59.437Z,80.80
2023-05-05T23:15:01.780Z,81.10
2023-05-05T23:20:04.699Z,81.30
2023-05-05T23:25:09.433Z,81.60
2023-05-05T23:30:13.022Z,81.60
2023-05-05T23:35:15.288Z,81.60
2023-05-05T23:40:19.126Z,81.70
2023-05-05T23:45:21.413Z,82.00
2023-05-05T23:50:23.608Z,82.00
2023-05-05T23:55:27.395Z,82.10
